sensor_id;sensor_type;location;lat;lon;timestamp;temperature;humidity
63875;DHT22;51595;24.180;-110.296;2024-02-14T00:01:39;18.10;99.90
63875;DHT22;51595;24.180;-110.296;2024-02-14T00:04:06;17.90;99.90
63875;DHT22;51595;24.180;-110.296;2024-02-14T00:06:37;17.70;99.90
63875;DHT22;51595;24.180;-110.296;2024-02-14T00:09:05;17.80;99.90
63875;DHT22;51595;24.180;-110.296;2024-02-14T00:11:33;17.60;99.90
63875;DHT22;51595;24.180;-110.296;2024-02-14T00:14:00;17.50;99.90
63875;DHT22;51595;24.180;-110.296;2024-02-14T00:16:28;17.50;99.90
63875;DHT22;51595;24.180;-110.296;2024-02-14T00:18:58;17.50;99.90
63875;DHT22;51595;24.180;-110.296;2024-02-14T00:21:25;17.50;99.90
63875;DHT22;51595;24.180;-110.296;2024-02-14T00:23:52;17.60;99.90
63875;DHT22;51595;24.180;-110.296;2024-02-14T00:26:19;17.60;99.90
63875;DHT22;51595;24.180;-110.296;2024-02-14T00:28:46;17.60;99.90
63875;DHT22;51595;24.180;-110.296;2024-02-14T00:31:13;17.50;99.90
63875;DHT22;51595;24.180;-110.296;2024-02-14T00:33:40;17.50;99.90
63875;DHT22;51595;24.180;-110.296;2024-02-14T00:36:07;17.40;99.90
63875;DHT22;51595;24.180;-110.296;2024-02-14T00:38:34;17.40;99.90
63875;DHT22;51595;24.180;-110.296;2024-02-14T00:41:02;17.30;99.90
63875;DHT22;51595;24.180;-110.296;2024-02-14T00:43:29;17.20;99.90
63875;DHT22;51595;24.180;-110.296;2024-02-14T00:45:56;17.00;99.90
63875;DHT22;51595;24.180;-110.296;2024-02-14T00:48:24;16.80;99.90
63875;DHT22;51595;24.180;-110.296;2024-02-14T00:50:51;16.60;99.90
63875;DHT22;51595;24.180;-110.296;2024-02-14T00:53:18;16.50;99.90
63875;DHT22;51595;24.180;-110.296;2024-02-14T00:55:46;16.30;99.90
63875;DHT22;51595;24.180;-110.296;2024-02-14T00:58:13;16.20;99.90
63875;DHT22;51595;24.180;-110.296;2024-02-14T01:00:40;16.10;99.90
63875;DHT22;51595;24.180;-110.296;2024-02-14T01:03:07;15.90;99.90
63875;DHT22;51595;24.180;-110.296;2024-02-14T01:05:35;15.70;99.90
63875;DHT22;51595;24.180;-110.296;2024-02-14T01:08:03;15.60;99.90
63875;DHT22;51595;24.180;-110.296;2024-02-14T01:10:30;15.50;99.90
63875;DHT22;51595;24.180;-110.296;2024-02-14T01:12:57;15.50;99.90
63875;DHT22;51595;24.180;-110.296;2024-02-14T01:15:24;15.30;99.90
63875;DHT22;51595;24.180;-110.296;2024-02-14T01:17:51;15.20;99.90
63875;DHT22;51595;24.180;-110.296;2024-02-14T01:20:18;15.20;99.90
63875;DHT22;51595;24.180;-110.296;2024-02-14T01:22:46;15.10;99.90
63875;DHT22;51595;24.180;-110.296;2024-02-14T01:25:14;15.00;99.90
63875;DHT22;51595;24.180;-110.296;2024-02-14T01:27:41;15.00;99.90
63875;DHT22;51595;24.180;-110.296;2024-02-14T01:30:10;15.00;99.90
63875;DHT22;51595;24.180;-110.296;2024-02-14T01:32:37;14.90;99.90
63875;DHT22;51595;24.180;-110.296;2024-02-14T01:35:05;14.80;99.90
63875;DHT22;51595;24.180;-110.296;2024-02-14T01:37:33;14.70;99.90
63875;DHT22;51595;24.180;-110.296;2024-02-14T01:40:00;14.70;99.90
63875;DHT22;51595;24.180;-110.296;2024-02-14T01:42:27;14.70;99.90
63875;DHT22;51595;24.180;-110.296;2024-02-14T01:44:54;14.70;99.90
63875;DHT22;51595;24.180;-110.296;2024-02-14T01:47:21;14.60;99.90
63875;DHT22;51595;24.180;-110.296;2024-02-14T01:49:48;14.60;99.90
63875;DHT22;51595;24.180;-110.296;2024-02-14T01:52:16;14.60;99.90
63875;DHT22;51595;24.180;-110.296;2024-02-14T01:54:43;14.60;99.90
63875;DHT22;51595;24.180;-110.296;2024-02-14T01:57:11;14.60;99.90
63875;DHT22;51595;24.180;-110.296;2024-02-14T01:59:39;14.70;99.90
63875;DHT22;51595;24.180;-110.296;2024-02-14T02:02:06;14.70;99.90
63875;DHT22;51595;24.180;-110.296;2024-02-14T02:04:34;14.90;99.90
63875;DHT22;51595;24.180;-110.296;2024-02-14T02:07:01;15.10;99.90
63875;DHT22;51595;24.180;-110.296;2024-02-14T02:09:28;15.20;99.90
63875;DHT22;51595;24.180;-110.296;2024-02-14T02:11:57;15.20;99.90
63875;DHT22;51595;24.180;-110.296;2024-02-14T02:14:26;15.10;99.90
63875;DHT22;51595;24.180;-110.296;2024-02-14T02:16:54;15.00;99.90
63875;DHT22;51595;24.180;-110.296;2024-02-14T02:19:21;15.00;99.90
63875;DHT22;51595;24.180;-110.296;2024-02-14T02:21:48;14.90;99.90
63875;DHT22;51595;24.180;-110.296;2024-02-14T02:24:15;14.90;99.90
63875;DHT22;51595;24.180;-110.296;2024-02-14T02:26:42;14.80;99.90
63875;DHT22;51595;24.180;-110.296;2024-02-14T02:29:10;14.70;99.90
63875;DHT22;51595;24.180;-110.296;2024-02-14T02:31:37;14.70;99.90
63875;DHT22;51595;24.180;-110.296;2024-02-14T02:34:04;14.60;99.90
63875;DHT22;51595;24.180;-110.296;2024-02-14T02:36:31;14.60;99.90
63875;DHT22;51595;24.180;-110.296;2024-02-14T02:38:59;14.50;99.90
63875;DHT22;51595;24.180;-110.296;2024-02-14T02:41:27;14.50;99.90
63875;DHT22;51595;24.180;-110.296;2024-02-14T02:43:54;14.50;99.90
63875;DHT22;51595;24.180;-110.296;2024-02-14T02:46:21;14.40;99.90
63875;DHT22;51595;24.180;-110.296;2024-02-14T02:48:49;14.40;99.90
63875;DHT22;51595;24.180;-110.296;2024-02-14T02:51:17;14.40;99.90
63875;DHT22;51595;24.180;-110.296;2024-02-14T02:53:44;14.30;99.90
63875;DHT22;51595;24.180;-110.296;2024-02-14T02:56:11;14.30;99.90
63875;DHT22;51595;24.180;-110.296;2024-02-14T02:58:39;14.20;99.90
63875;DHT22;51595;24.180;-110.296;2024-02-14T03:01:09;14.20;99.90
63875;DHT22;51595;24.180;-110.296;2024-02-14T03:03:38;14.10;99.90
63875;DHT22;51595;24.180;-110.296;2024-02-14T03:06:07;14.10;99.90
63875;DHT22;51595;24.180;-110.296;2024-02-14T03:08:35;14.00;99.90
63875;DHT22;51595;24.180;-110.296;2024-02-14T03:11:05;13.90;99.90
63875;DHT22;51595;24.180;-110.296;2024-02-14T03:13:33;13.90;99.90
63875;DHT22;51595;24.180;-110.296;2024-02-14T03:16:02;13.90;99.90
63875;DHT22;51595;24.180;-110.296;2024-02-14T03:18:30;13.90;99.90
63875;DHT22;51595;24.180;-110.296;2024-02-14T03:20:58;13.80;99.90
63875;DHT22;51595;24.180;-110.296;2024-02-14T03:23:25;13.80;99.90
63875;DHT22;51595;24.180;-110.296;2024-02-14T03:25:54;13.80;99.90
63875;DHT22;51595;24.180;-110.296;2024-02-14T03:28:21;13.80;99.90
63875;DHT22;51595;24.180;-110.296;2024-02-14T03:30:48;13.70;99.90
63875;DHT22;51595;24.180;-110.296;2024-02-14T03:33:15;13.70;99.90
63875;DHT22;51595;24.180;-110.296;2024-02-14T03:35:42;13.60;99.90
63875;DHT22;51595;24.180;-110.296;2024-02-14T03:38:10;13.60;99.90
63875;DHT22;51595;24.180;-110.296;2024-02-14T03:40:37;13.50;99.90
63875;DHT22;51595;24.180;-110.296;2024-02-14T03:43:05;13.50;99.90
63875;DHT22;51595;24.180;-110.296;2024-02-14T03:45:32;13.40;99.90
63875;DHT22;51595;24.180;-110.296;2024-02-14T03:48:01;13.40;99.90
63875;DHT22;51595;24.180;-110.296;2024-02-14T03:50:29;13.40;99.90
63875;DHT22;51595;24.180;-110.296;2024-02-14T03:52:56;13.30;99.90
63875;DHT22;51595;24.180;-110.296;2024-02-14T03:55:23;13.30;99.90
63875;DHT22;51595;24.180;-110.296;2024-02-14T03:57:51;13.30;99.90
63875;DHT22;51595;24.180;-110.296;2024-02-14T04:00:18;13.20;99.90
63875;DHT22;51595;24.180;-110.296;2024-02-14T04:02:46;13.20;99.90
63875;DHT22;51595;24.180;-110.296;2024-02-14T04:05:15;13.10;99.90
63875;DHT22;51595;24.180;-110.296;2024-02-14T04:07:42;13.10;99.90
63875;DHT22;51595;24.180;-110.296;2024-02-14T04:10:15;13.20;99.90
63875;DHT22;51595;24.180;-110.296;2024-02-14T04:12:42;13.20;99.90
63875;DHT22;51595;24.180;-110.296;2024-02-14T04:15:10;13.20;99.90
63875;DHT22;51595;24.180;-110.296;2024-02-14T04:17:37;13.20;99.90
63875;DHT22;51595;24.180;-110.296;2024-02-14T04:20:05;13.20;99.90
63875;DHT22;51595;24.180;-110.296;2024-02-14T04:22:32;13.20;99.90
63875;DHT22;51595;24.180;-110.296;2024-02-14T04:25:00;13.20;99.90
63875;DHT22;51595;24.180;-110.296;2024-02-14T04:27:28;13.10;99.90
63875;DHT22;51595;24.180;-110.296;2024-02-14T04:29:55;13.20;99.90
63875;DHT22;51595;24.180;-110.296;2024-02-14T04:32:22;13.10;99.90
63875;DHT22;51595;24.180;-110.296;2024-02-14T04:34:50;13.00;99.90
63875;DHT22;51595;24.180;-110.296;2024-02-14T04:37:17;12.90;99.90
63875;DHT22;51595;24.180;-110.296;2024-02-14T04:39:46;12.90;99.90
63875;DHT22;51595;24.180;-110.296;2024-02-14T04:42:13;12.90;99.90
63875;DHT22;51595;24.180;-110.296;2024-02-14T04:44:40;13.00;99.90
63875;DHT22;51595;24.180;-110.296;2024-02-14T04:47:07;13.10;99.90
63875;DHT22;51595;24.180;-110.296;2024-02-14T04:49:36;13.00;99.90
63875;DHT22;51595;24.180;-110.296;2024-02-14T04:52:04;12.80;99.90
63875;DHT22;51595;24.180;-110.296;2024-02-14T04:54:33;12.80;99.90
63875;DHT22;51595;24.180;-110.296;2024-02-14T04:57:01;12.70;99.90
63875;DHT22;51595;24.180;-110.296;2024-02-14T04:59:30;12.70;99.90
63875;DHT22;51595;24.180;-110.296;2024-02-14T05:01:57;12.60;99.90
63875;DHT22;51595;24.180;-110.296;2024-02-14T05:04:25;12.60;99.90
63875;DHT22;51595;24.180;-110.296;2024-02-14T05:06:52;12.50;99.90
63875;DHT22;51595;24.180;-110.296;2024-02-14T05:09:19;12.50;99.90
63875;DHT22;51595;24.180;-110.296;2024-02-14T05:11:46;12.50;99.90
63875;DHT22;51595;24.180;-110.296;2024-02-14T05:14:13;12.50;99.90
63875;DHT22;51595;24.180;-110.296;2024-02-14T05:16:40;12.50;99.90
63875;DHT22;51595;24.180;-110.296;2024-02-14T05:19:07;12.50;99.90
63875;DHT22;51595;24.180;-110.296;2024-02-14T05:21:34;12.60;99.90
63875;DHT22;51595;24.180;-110.296;2024-02-14T05:24:02;12.60;99.90
63875;DHT22;51595;24.180;-110.296;2024-02-14T05:26:29;12.60;99.90
63875;DHT22;51595;24.180;-110.296;2024-02-14T05:28:56;12.60;99.90
63875;DHT22;51595;24.180;-110.296;2024-02-14T05:31:28;12.50;99.90
63875;DHT22;51595;24.180;-110.296;2024-02-14T05:34:09;12.60;99.90
63875;DHT22;51595;24.180;-110.296;2024-02-14T05:36:36;12.60;99.90
63875;DHT22;51595;24.180;-110.296;2024-02-14T05:39:05;12.60;99.90
63875;DHT22;51595;24.180;-110.296;2024-02-14T05:41:35;12.60;99.90
63875;DHT22;51595;24.180;-110.296;2024-02-14T05:44:02;12.60;99.90
63875;DHT22;51595;24.180;-110.296;2024-02-14T05:46:29;12.50;99.90
63875;DHT22;51595;24.180;-110.296;2024-02-14T05:48:56;12.60;99.90
63875;DHT22;51595;24.180;-110.296;2024-02-14T05:51:24;12.60;99.90
63875;DHT22;51595;24.180;-110.296;2024-02-14T05:53:51;12.50;99.90
63875;DHT22;51595;24.180;-110.296;2024-02-14T05:56:18;12.40;99.90
63875;DHT22;51595;24.180;-110.296;2024-02-14T05:58:46;12.50;99.90
63875;DHT22;51595;24.180;-110.296;2024-02-14T06:01:13;12.50;99.90
63875;DHT22;51595;24.180;-110.296;2024-02-14T06:03:42;12.60;99.90
63875;DHT22;51595;24.180;-110.296;2024-02-14T06:06:12;12.60;99.90
63875;DHT22;51595;24.180;-110.296;2024-02-14T06:08:39;12.60;99.90
63875;DHT22;51595;24.180;-110.296;2024-02-14T06:11:06;12.60;99.90
63875;DHT22;51595;24.180;-110.296;2024-02-14T06:13:34;12.60;99.90
63875;DHT22;51595;24.180;-110.296;2024-02-14T06:16:02;12.70;99.90
63875;DHT22;51595;24.180;-110.296;2024-02-14T06:18:29;12.60;99.90
63875;DHT22;51595;24.180;-110.296;2024-02-14T06:20:56;12.60;99.90
63875;DHT22;51595;24.180;-110.296;2024-02-14T06:23:23;12.60;99.90
63875;DHT22;51595;24.180;-110.296;2024-02-14T06:25:50;12.60;99.90
63875;DHT22;51595;24.180;-110.296;2024-02-14T06:28:17;12.60;99.90
63875;DHT22;51595;24.180;-110.296;2024-02-14T06:30:44;12.50;99.90
63875;DHT22;51595;24.180;-110.296;2024-02-14T06:33:12;12.40;99.90
63875;DHT22;51595;24.180;-110.296;2024-02-14T06:35:39;12.40;99.90
63875;DHT22;51595;24.180;-110.296;2024-02-14T06:38:06;12.50;99.90
63875;DHT22;51595;24.180;-110.296;2024-02-14T06:40:33;12.50;99.90
63875;DHT22;51595;24.180;-110.296;2024-02-14T06:43:00;12.60;99.90
63875;DHT22;51595;24.180;-110.296;2024-02-14T06:45:28;12.60;99.90
63875;DHT22;51595;24.180;-110.296;2024-02-14T06:47:55;12.60;99.90
63875;DHT22;51595;24.180;-110.296;2024-02-14T06:50:22;12.50;99.90
63875;DHT22;51595;24.180;-110.296;2024-02-14T06:52:51;12.50;99.90
63875;DHT22;51595;24.180;-110.296;2024-02-14T06:55:18;12.50;99.90
63875;DHT22;51595;24.180;-110.296;2024-02-14T06:57:45;12.50;99.90
63875;DHT22;51595;24.180;-110.296;2024-02-14T07:00:13;12.50;99.90
63875;DHT22;51595;24.180;-110.296;2024-02-14T07:02:40;12.50;99.90
63875;DHT22;51595;24.180;-110.296;2024-02-14T07:05:09;12.50;99.90
63875;DHT22;51595;24.180;-110.296;2024-02-14T07:07:39;12.40;99.90
63875;DHT22;51595;24.180;-110.296;2024-02-14T07:10:07;12.20;99.90
63875;DHT22;51595;24.180;-110.296;2024-02-14T07:12:34;12.20;99.90
63875;DHT22;51595;24.180;-110.296;2024-02-14T07:15:03;12.10;99.90
63875;DHT22;51595;24.180;-110.296;2024-02-14T07:17:31;12.10;99.90
63875;DHT22;51595;24.180;-110.296;2024-02-14T07:19:59;12.10;99.90
63875;DHT22;51595;24.180;-110.296;2024-02-14T07:22:26;12.20;99.90
63875;DHT22;51595;24.180;-110.296;2024-02-14T07:24:53;12.30;99.90
63875;DHT22;51595;24.180;-110.296;2024-02-14T07:27:20;12.30;99.90
63875;DHT22;51595;24.180;-110.296;2024-02-14T07:29:48;12.30;99.90
63875;DHT22;51595;24.180;-110.296;2024-02-14T07:32:15;12.40;99.90
63875;DHT22;51595;24.180;-110.296;2024-02-14T07:34:43;12.50;99.90
63875;DHT22;51595;24.180;-110.296;2024-02-14T07:37:10;12.50;99.90
63875;DHT22;51595;24.180;-110.296;2024-02-14T07:39:37;12.60;99.90
63875;DHT22;51595;24.180;-110.296;2024-02-14T07:42:04;12.70;99.90
63875;DHT22;51595;24.180;-110.296;2024-02-14T07:44:32;12.70;99.90
63875;DHT22;51595;24.180;-110.296;2024-02-14T07:46:59;12.70;99.90
63875;DHT22;51595;24.180;-110.296;2024-02-14T07:49:26;12.70;99.90
63875;DHT22;51595;24.180;-110.296;2024-02-14T07:51:53;12.60;99.90
63875;DHT22;51595;24.180;-110.296;2024-02-14T07:54:20;12.70;99.90
63875;DHT22;51595;24.180;-110.296;2024-02-14T07:56:48;12.70;99.90
63875;DHT22;51595;24.180;-110.296;2024-02-14T07:59:14;12.80;99.90
63875;DHT22;51595;24.180;-110.296;2024-02-14T08:01:42;12.80;99.90
63875;DHT22;51595;24.180;-110.296;2024-02-14T08:04:10;12.80;99.90
63875;DHT22;51595;24.180;-110.296;2024-02-14T08:06:37;12.70;99.90
63875;DHT22;51595;24.180;-110.296;2024-02-14T08:09:04;12.70;99.90
63875;DHT22;51595;24.180;-110.296;2024-02-14T08:11:36;12.60;99.90
63875;DHT22;51595;24.180;-110.296;2024-02-14T08:14:04;12.60;99.90
63875;DHT22;51595;24.180;-110.296;2024-02-14T08:16:31;12.60;99.90
63875;DHT22;51595;24.180;-110.296;2024-02-14T08:18:58;12.60;99.90
63875;DHT22;51595;24.180;-110.296;2024-02-14T08:21:26;12.60;99.90
63875;DHT22;51595;24.180;-110.296;2024-02-14T08:23:54;12.60;99.90
63875;DHT22;51595;24.180;-110.296;2024-02-14T08:26:22;12.60;99.90
63875;DHT22;51595;24.180;-110.296;2024-02-14T08:28:49;12.60;99.90
63875;DHT22;51595;24.180;-110.296;2024-02-14T08:31:16;12.60;99.90
63875;DHT22;51595;24.180;-110.296;2024-02-14T08:33:43;12.50;99.90
63875;DHT22;51595;24.180;-110.296;2024-02-14T08:36:11;12.50;99.90
63875;DHT22;51595;24.180;-110.296;2024-02-14T08:38:38;12.50;99.90
63875;DHT22;51595;24.180;-110.296;2024-02-14T08:41:05;12.50;99.90
63875;DHT22;51595;24.180;-110.296;2024-02-14T08:43:32;12.50;99.90
63875;DHT22;51595;24.180;-110.296;2024-02-14T08:46:00;12.50;99.90
63875;DHT22;51595;24.180;-110.296;2024-02-14T08:48:27;12.60;99.90
63875;DHT22;51595;24.180;-110.296;2024-02-14T08:50:56;12.60;99.90
63875;DHT22;51595;24.180;-110.296;2024-02-14T08:53:23;12.60;99.90
63875;DHT22;51595;24.180;-110.296;2024-02-14T08:55:50;12.60;99.90
63875;DHT22;51595;24.180;-110.296;2024-02-14T08:58:18;12.50;99.90
63875;DHT22;51595;24.180;-110.296;2024-02-14T09:00:45;12.50;99.90
63875;DHT22;51595;24.180;-110.296;2024-02-14T09:03:12;12.50;99.90
63875;DHT22;51595;24.180;-110.296;2024-02-14T09:05:39;12.50;99.90
63875;DHT22;51595;24.180;-110.296;2024-02-14T09:08:07;12.60;99.90
63875;DHT22;51595;24.180;-110.296;2024-02-14T09:10:34;12.60;99.90
63875;DHT22;51595;24.180;-110.296;2024-02-14T09:13:01;12.60;99.90
63875;DHT22;51595;24.180;-110.296;2024-02-14T09:15:29;12.60;99.90
63875;DHT22;51595;24.180;-110.296;2024-02-14T09:17:57;12.60;99.90
63875;DHT22;51595;24.180;-110.296;2024-02-14T09:20:26;12.70;99.90
63875;DHT22;51595;24.180;-110.296;2024-02-14T09:22:53;12.70;99.90
63875;DHT22;51595;24.180;-110.296;2024-02-14T09:25:20;12.60;99.90
63875;DHT22;51595;24.180;-110.296;2024-02-14T09:27:50;12.60;99.90
63875;DHT22;51595;24.180;-110.296;2024-02-14T09:30:17;12.60;99.90
63875;DHT22;51595;24.180;-110.296;2024-02-14T09:32:45;12.70;99.90
63875;DHT22;51595;24.180;-110.296;2024-02-14T09:35:14;12.60;99.90
63875;DHT22;51595;24.180;-110.296;2024-02-14T09:37:41;12.50;99.90
63875;DHT22;51595;24.180;-110.296;2024-02-14T09:40:08;12.40;99.90
63875;DHT22;51595;24.180;-110.296;2024-02-14T09:42:44;12.30;99.90
63875;DHT22;51595;24.180;-110.296;2024-02-14T09:45:15;12.20;99.90
63875;DHT22;51595;24.180;-110.296;2024-02-14T09:47:42;12.10;99.90
63875;DHT22;51595;24.180;-110.296;2024-02-14T09:50:10;12.10;99.90
63875;DHT22;51595;24.180;-110.296;2024-02-14T09:52:39;12.10;99.90
63875;DHT22;51595;24.180;-110.296;2024-02-14T09:55:07;12.10;99.90
63875;DHT22;51595;24.180;-110.296;2024-02-14T09:57:35;12.00;99.90
63875;DHT22;51595;24.180;-110.296;2024-02-14T10:00:03;11.90;99.90
63875;DHT22;51595;24.180;-110.296;2024-02-14T10:02:30;12.00;99.90
63875;DHT22;51595;24.180;-110.296;2024-02-14T10:04:58;11.90;99.90
63875;DHT22;51595;24.180;-110.296;2024-02-14T10:07:25;11.90;99.90
63875;DHT22;51595;24.180;-110.296;2024-02-14T10:09:52;11.80;99.90
63875;DHT22;51595;24.180;-110.296;2024-02-14T10:12:20;11.70;99.90
63875;DHT22;51595;24.180;-110.296;2024-02-14T10:14:47;11.80;99.90
63875;DHT22;51595;24.180;-110.296;2024-02-14T10:17:20;11.80;99.90
63875;DHT22;51595;24.180;-110.296;2024-02-14T10:19:57;11.70;99.90
63875;DHT22;51595;24.180;-110.296;2024-02-14T10:22:31;11.80;99.90
63875;DHT22;51595;24.180;-110.296;2024-02-14T10:25:01;11.80;99.90
63875;DHT22;51595;24.180;-110.296;2024-02-14T10:27:28;11.80;99.90
63875;DHT22;51595;24.180;-110.296;2024-02-14T10:30:00;11.80;99.90
63875;DHT22;51595;24.180;-110.296;2024-02-14T10:32:28;11.80;99.90
63875;DHT22;51595;24.180;-110.296;2024-02-14T10:34:55;11.90;99.90
63875;DHT22;51595;24.180;-110.296;2024-02-14T10:37:22;11.80;99.90
63875;DHT22;51595;24.180;-110.296;2024-02-14T10:39:52;11.90;99.90
63875;DHT22;51595;24.180;-110.296;2024-02-14T10:42:20;11.90;99.90
63875;DHT22;51595;24.180;-110.296;2024-02-14T10:44:47;12.00;99.90
63875;DHT22;51595;24.180;-110.296;2024-02-14T10:47:19;12.00;99.90
63875;DHT22;51595;24.180;-110.296;2024-02-14T10:49:49;12.00;99.90
63875;DHT22;51595;24.180;-110.296;2024-02-14T10:52:18;11.90;99.90
63875;DHT22;51595;24.180;-110.296;2024-02-14T10:54:55;11.90;99.90
63875;DHT22;51595;24.180;-110.296;2024-02-14T10:57:25;12.00;99.90
63875;DHT22;51595;24.180;-110.296;2024-02-14T10:59:54;12.10;99.90
63875;DHT22;51595;24.180;-110.296;2024-02-14T11:02:23;12.10;99.90
63875;DHT22;51595;24.180;-110.296;2024-02-14T11:04:51;12.10;99.90
63875;DHT22;51595;24.180;-110.296;2024-02-14T11:07:22;12.20;99.90
63875;DHT22;51595;24.180;-110.296;2024-02-14T11:10:04;12.10;99.90
63875;DHT22;51595;24.180;-110.296;2024-02-14T11:12:38;12.10;99.90
63875;DHT22;51595;24.180;-110.296;2024-02-14T11:15:23;12.00;99.90
63875;DHT22;51595;24.180;-110.296;2024-02-14T11:18:05;11.90;99.90
63875;DHT22;51595;24.180;-110.296;2024-02-14T11:20:35;11.90;99.90
63875;DHT22;51595;24.180;-110.296;2024-02-14T11:23:06;11.90;99.90
63875;DHT22;51595;24.180;-110.296;2024-02-14T11:25:38;11.90;99.90
63875;DHT22;51595;24.180;-110.296;2024-02-14T11:30:42;12.00;99.90
63875;DHT22;51595;24.180;-110.296;2024-02-14T11:35:48;12.10;99.90
63875;DHT22;51595;24.180;-110.296;2024-02-14T11:38:22;12.10;99.90
63875;DHT22;51595;24.180;-110.296;2024-02-14T11:40:55;12.10;99.90
63875;DHT22;51595;24.180;-110.296;2024-02-14T11:43:23;12.20;99.90
63875;DHT22;51595;24.180;-110.296;2024-02-14T11:45:51;12.20;99.90
63875;DHT22;51595;24.180;-110.296;2024-02-14T11:48:21;12.20;99.90
63875;DHT22;51595;24.180;-110.296;2024-02-14T11:50:52;12.30;99.90
63875;DHT22;51595;24.180;-110.296;2024-02-14T11:53:21;12.40;99.90
63875;DHT22;51595;24.180;-110.296;2024-02-14T11:55:48;12.40;99.90
63875;DHT22;51595;24.180;-110.296;2024-02-14T11:58:16;12.40;99.90
63875;DHT22;51595;24.180;-110.296;2024-02-14T12:00:46;12.40;99.90
63875;DHT22;51595;24.180;-110.296;2024-02-14T12:03:18;12.40;99.90
63875;DHT22;51595;24.180;-110.296;2024-02-14T12:05:48;12.40;99.90
63875;DHT22;51595;24.180;-110.296;2024-02-14T12:08:17;12.50;99.90
63875;DHT22;51595;24.180;-110.296;2024-02-14T12:10:45;12.40;99.90
63875;DHT22;51595;24.180;-110.296;2024-02-14T12:13:20;12.50;99.90
63875;DHT22;51595;24.180;-110.296;2024-02-14T12:15:49;12.40;99.90
63875;DHT22;51595;24.180;-110.296;2024-02-14T12:18:18;12.30;99.90
63875;DHT22;51595;24.180;-110.296;2024-02-14T12:20:46;12.00;99.90
63875;DHT22;51595;24.180;-110.296;2024-02-14T12:23:17;11.80;99.90
63875;DHT22;51595;24.180;-110.296;2024-02-14T12:25:45;11.70;99.90
63875;DHT22;51595;24.180;-110.296;2024-02-14T12:28:19;11.70;99.90
63875;DHT22;51595;24.180;-110.296;2024-02-14T12:30:51;11.60;99.90
63875;DHT22;51595;24.180;-110.296;2024-02-14T12:33:25;11.60;99.90
63875;DHT22;51595;24.180;-110.296;2024-02-14T12:35:54;11.60;99.90
63875;DHT22;51595;24.180;-110.296;2024-02-14T12:38:23;11.50;99.90
63875;DHT22;51595;24.180;-110.296;2024-02-14T12:40:50;11.50;99.90
63875;DHT22;51595;24.180;-110.296;2024-02-14T12:43:20;11.60;99.90
63875;DHT22;51595;24.180;-110.296;2024-02-14T12:45:48;11.70;99.90
63875;DHT22;51595;24.180;-110.296;2024-02-14T12:48:23;11.70;99.90
63875;DHT22;51595;24.180;-110.296;2024-02-14T12:50:53;11.80;99.90
63875;DHT22;51595;24.180;-110.296;2024-02-14T12:53:21;11.70;99.90
63875;DHT22;51595;24.180;-110.296;2024-02-14T12:55:48;11.70;99.90
63875;DHT22;51595;24.180;-110.296;2024-02-14T12:58:16;11.50;99.90
63875;DHT22;51595;24.180;-110.296;2024-02-14T13:00:43;11.50;99.90
63875;DHT22;51595;24.180;-110.296;2024-02-14T13:03:11;11.60;99.90
63875;DHT22;51595;24.180;-110.296;2024-02-14T13:05:39;11.60;99.90
63875;DHT22;51595;24.180;-110.296;2024-02-14T13:08:07;11.60;99.90
63875;DHT22;51595;24.180;-110.296;2024-02-14T13:10:37;11.60;99.90
63875;DHT22;51595;24.180;-110.296;2024-02-14T13:13:05;11.60;99.90
63875;DHT22;51595;24.180;-110.296;2024-02-14T13:15:32;11.50;99.90
63875;DHT22;51595;24.180;-110.296;2024-02-14T13:17:59;11.50;99.90
63875;DHT22;51595;24.180;-110.296;2024-02-14T13:20:26;11.50;99.90
63875;DHT22;51595;24.180;-110.296;2024-02-14T13:22:54;11.50;99.90
63875;DHT22;51595;24.180;-110.296;2024-02-14T13:25:21;11.50;99.90
63875;DHT22;51595;24.180;-110.296;2024-02-14T13:27:49;11.40;99.90
63875;DHT22;51595;24.180;-110.296;2024-02-14T13:30:16;11.50;99.90
63875;DHT22;51595;24.180;-110.296;2024-02-14T13:32:47;11.60;99.90
63875;DHT22;51595;24.180;-110.296;2024-02-14T13:35:15;11.70;99.90
63875;DHT22;51595;24.180;-110.296;2024-02-14T13:37:42;11.80;99.90
63875;DHT22;51595;24.180;-110.296;2024-02-14T13:40:11;11.90;99.90
63875;DHT22;51595;24.180;-110.296;2024-02-14T13:42:39;12.20;99.90
63875;DHT22;51595;24.180;-110.296;2024-02-14T13:45:07;12.40;99.90
63875;DHT22;51595;24.180;-110.296;2024-02-14T13:47:38;12.50;99.90
63875;DHT22;51595;24.180;-110.296;2024-02-14T13:50:09;12.50;99.90
63875;DHT22;51595;24.180;-110.296;2024-02-14T13:52:36;12.40;99.90
63875;DHT22;51595;24.180;-110.296;2024-02-14T13:55:04;12.40;99.90
63875;DHT22;51595;24.180;-110.296;2024-02-14T13:57:38;12.30;99.90
63875;DHT22;51595;24.180;-110.296;2024-02-14T14:00:08;12.30;99.90
63875;DHT22;51595;24.180;-110.296;2024-02-14T14:02:38;12.30;99.90
63875;DHT22;51595;24.180;-110.296;2024-02-14T14:05:10;12.30;99.90
63875;DHT22;51595;24.180;-110.296;2024-02-14T14:07:41;12.40;99.90
63875;DHT22;51595;24.180;-110.296;2024-02-14T14:10:11;12.40;99.90
63875;DHT22;51595;24.180;-110.296;2024-02-14T14:12:38;12.40;99.90
63875;DHT22;51595;24.180;-110.296;2024-02-14T14:15:06;12.30;99.90
63875;DHT22;51595;24.180;-110.296;2024-02-14T14:17:35;12.30;99.90
63875;DHT22;51595;24.180;-110.296;2024-02-14T14:20:03;12.20;99.90
63875;DHT22;51595;24.180;-110.296;2024-02-14T14:22:30;12.20;99.90
63875;DHT22;51595;24.180;-110.296;2024-02-14T14:24:57;12.30;99.90
63875;DHT22;51595;24.180;-110.296;2024-02-14T14:27:25;12.30;99.90
63875;DHT22;51595;24.180;-110.296;2024-02-14T14:29:52;12.40;99.90
63875;DHT22;51595;24.180;-110.296;2024-02-14T14:32:20;12.40;99.90
63875;DHT22;51595;24.180;-110.296;2024-02-14T14:34:48;12.40;99.90
63875;DHT22;51595;24.180;-110.296;2024-02-14T14:37:15;12.50;99.90
63875;DHT22;51595;24.180;-110.296;2024-02-14T14:39:42;12.50;99.90
63875;DHT22;51595;24.180;-110.296;2024-02-14T14:42:11;12.60;99.90
63875;DHT22;51595;24.180;-110.296;2024-02-14T14:44:38;12.70;99.90
63875;DHT22;51595;24.180;-110.296;2024-02-14T14:47:06;12.90;99.90
63875;DHT22;51595;24.180;-110.296;2024-02-14T14:49:33;13.00;99.90
63875;DHT22;51595;24.180;-110.296;2024-02-14T14:52:00;12.90;99.90
63875;DHT22;51595;24.180;-110.296;2024-02-14T14:54:31;12.90;99.90
63875;DHT22;51595;24.180;-110.296;2024-02-14T14:56:58;13.00;99.90
63875;DHT22;51595;24.180;-110.296;2024-02-14T14:59:25;13.20;99.90